Observations for CIAMPINO IT-AFB CV, Italy (LIRA)

LIRA 181420Z 22007KT 200V290 CAVOK 20/05 Q1021  
LIRA 181350Z 24006KT 190V270 CAVOK 20/05 Q1021  
LIRA 181320Z 23006KT 180V290 CAVOK 20/06 Q1021  
LIRA 181250Z 21008KT 180V240 9999 FEW050 20/07 Q1021
LIRA 181220Z 23007KT 190V260 9999 FEW050 20/06 Q1021
LIRA 181150Z 21006KT 120V260 9999 SCT045 20/08 Q1021
LIRA 181120Z 25007KT 200V280 9999 SCT040 20/08 Q1021
LIRA 181050Z VRB04KT 9999 SCT040 19/07 Q1021
LIRA 181020Z 26004KT 210V320 9999 FEW040 20/08 Q1021
LIRA 180950Z 25005KT 210V300 9999 FEW050 19/08 Q1021
LIRA 180920Z VRB04KT CAVOK 19/08 Q1021  
LIRA 180850Z 30003KT 220V350 CAVOK 18/09 Q1021  
LIRA 180820Z VRB02KT CAVOK 17/09 Q1021  
LIRA 180750Z VRB02KT CAVOK 17/09 Q1021  
LIRA 180720Z 36003KT 330V040 CAVOK 15/08 Q1021  
LIRA 180650Z 02003KT CAVOK 14/09 Q1021  
LIRA 180620Z 36003KT 310V120 CAVOK 13/09 Q1021  
LIRA 180550Z 14003KT 9000 NSC 11/07 Q1021   
LIRA 180520Z 02004KT 9000 NSC 09/07 Q1021   
LIRA 180450Z 01005KT CAVOK 09/07 Q1021  
LIRA 180420Z 03003KT CAVOK 08/06 Q1020  
LIRA 180350Z VRB01KT CAVOK 08/06 Q1020  
LIRA 180320Z VRB02KT CAVOK 09/07 Q1020  
LIRA 180250Z VRB02KT CAVOK 09/07 Q1020  
LIRA 180220Z 09004KT CAVOK 09/06 Q1020  
LIRA 180150Z 09004KT CAVOK 09/06 Q1021  
LIRA 180120Z 10004KT CAVOK 09/06 Q1021  
LIRA 180050Z 09004KT CAVOK 10/07 Q1021  
LIRA 180020Z 08001KT CAVOK 10/07 Q1021  
LIRA 172350Z VRB01KT CAVOK 11/07 Q1021  
LIRA 172320Z 13005KT CAVOK 11/07 Q1021  
LIRA 172250Z 10005KT CAVOK 11/06 Q1021  
LIRA 172220Z 10004KT CAVOK 11/07 Q1020  
LIRA 172150Z 11005KT CAVOK 11/07 Q1020  
LIRA 172120Z 10006KT CAVOK 12/07 Q1020  
LIRA 172050Z 11005KT CAVOK 11/07 Q1020  
LIRA 172020Z 11005KT CAVOK 12/08 Q1020  
LIRA 171950Z 11003KT CAVOK 12/09 Q1020  
LIRA 171920Z VRB01KT CAVOK 14/08 Q1020  
LIRA 171850Z 20002KT CAVOK 14/09 Q1020  
LIRA 171820Z VRB02KT CAVOK 14/09 Q1020  
LIRA 171750Z 23004KT 180V270 CAVOK 15/09 Q1019  
LIRA 171720Z 24005KT 210V270 CAVOK 16/09 Q1019  
LIRA 171650Z 24006KT 200V280 CAVOK 17/08 Q1019  
LIRA 171620Z 23006KT 190V270 CAVOK 17/08 Q1019  
LIRA 171550Z 25007KT 210V280 CAVOK 18/08 Q1019  
LIRA 171520Z 26007KT 200V300 CAVOK 17/08 Q1019  
LIRA 171450Z 24008KT 210V280 CAVOK 18/08 Q1019  
LIRA 171420Z 25008KT 220V300 CAVOK 18/08 Q1019  
LIRA 171350Z 25006KT 220V290 9999 FEW045 19/07 Q1018